Saint Joseph, MO (64507)

10:24 AM CDT on April 26, 2017 (GMT -0500)
Horn Heights | | Change Station

Elev 951 ft 39.74 °N, 94.84 °W | Updated 3 seconds ago

Overcast
Overcast
41.9 °F
Feels Like 37 °F
N
8.0
Wind Variable Wind from WNW
Gusts 9.0 mph

Today
High -- | Low -- °F
--% Chance of Precip.
Yesterday
High -- | Low -- °F
Precip. -- in
Pressure 29.64 in
Visibility 10.0 miles
Clouds Overcast 1400 ft
Windchill 37 °F
Dew Point 37 °F
Humidity 83%
Rainfall 0.17 in
Snow Depth Not available.
6:25 AM 8:08 PM
New Moon, 0% visible
SPECI KSTJ 261510Z 33013KT 10SM OVC014 06/03 A2964 RMK AO2 T00560033 $
Pressure 29.64 in
Visibility 10.0 miles
Clouds Overcast 1400 ft
Windchill 37 °F
Dew Point 37 °F
Humidity 83%
Rainfall 0.17 in
Snow Depth Not available.
6:25 AM 8:08 PM
New Moon, 0% visible
SPECI KSTJ 261510Z 33013KT 10SM OVC014 06/03 A2964 RMK AO2 T00560033 $

Get Severe Weather Alerts

Thanks for signing up!

Be on the lookout for a verification email in your inbox.

You'll start receiving the daily forecast at 8 AM.

×

10-Day Weather Forecast

Almanac

Astronomy

Apr. 26, 2017 Rise Set
Actual Time
Civil Twilight
Nautical Twilight
Astronomical Twilight
Moon
Length of Visible Light
Length of Day
Tomorrow will be .
, % of the Moon is Illuminated

Today's Extremes

State Highs State Lows

Community

WunderPhotos

WunderBlog® & News

Nearby

Air Quality

  Air Quality AQ Index Pollutant
Not available.

Snow Depth

Station Depth Elevation

Earthquake Activity

City Distance Mag. Time & Date
Minimum magnitude displayed is 2.5.

Coastal Water Temperatures

Place Temperature

Stations

Nearby Weather Stations

Station Location Temp. Windchill Dew Point Humidity Wind Precip. Elev Updated Type
                   

Watches & Warnings

There are currently no watches in effect.